Time;durP1;ratioP1;P1;durP2;ratioP2;P2;SDS_P1;SDS_P2;PMS_P1;PMS_P2;Temp;Humidity;BMP_temperature;BMP_pressure;BME280_temperature;BME280_humidity;BME280_pressure;Samples;Min_cycle;Max_cycle;Signal;HPM_P1;HPM_P2
2022/07/06 00:01:21;;;;;;;26.33;4.72;;;;;;;;;;6181885;23;20021;-58
2022/07/06 00:03:48;;;;;;;33.28;5.97;;;;;;;;;;6182685;23;20049;-58
2022/07/06 00:06:21;;;;;;;28.50;4.95;;;;;;;;;;6182258;23;20764;-53
2022/07/06 00:08:49;;;;;;;38.95;5.78;;;;;;;;;;6182945;23;20397;-58
2022/07/06 00:11:16;;;;;;;21.52;4.45;;;;;;;;;;6181739;23;20025;-58
2022/07/06 00:13:43;;;;;;;28.17;5.95;;;;;;;;;;6182543;23;20032;-58
2022/07/06 00:16:11;;;;;;;36.10;5.78;;;;;;;;;;6181576;23;20021;-59
2022/07/06 00:18:38;;;;;;;38.15;5.80;;;;;;;;;;6181379;23;20032;-58
2022/07/06 00:21:06;;;;;;;38.90;4.95;;;;;;;;;;6181402;23;20017;-58
2022/07/06 00:23:33;;;;;;;35.90;5.35;;;;;;;;;;6182659;23;20028;-58
2022/07/06 00:26:00;;;;;;;;;;;;;;;;;;6156273;23;20025;-59
2022/07/06 00:28:28;;;;;;;31.38;4.80;;;;;;;;;;6182272;23;19961;-64
2022/07/06 00:30:55;;;;;;;27.52;5.80;;;;;;;;;;6181944;23;20024;-58
2022/07/06 00:33:23;;;;;;;26.25;6.03;;;;;;;;;;6181695;23;20104;-58
2022/07/06 00:35:50;;;;;;;36.20;6.07;;;;;;;;;;6181574;23;20462;-59
2022/07/06 00:38:17;;;;;;;33.55;4.97;;;;;;;;;;6181634;23;20761;-59
2022/07/06 00:40:45;;;;;;;37.17;6.15;;;;;;;;;;6181888;23;20031;-58
2022/07/06 00:43:12;;;;;;;27.30;5.63;;;;;;;;;;6181962;23;20047;-59
2022/07/06 00:45:39;;;;;;;27.13;5.53;;;;;;;;;;6181758;23;20025;-63
2022/07/06 00:48:07;;;;;;;25.75;5.47;;;;;;;;;;6181760;23;20923;-65
2022/07/06 00:50:34;;;;;;;27.60;5.75;;;;;;;;;;6181451;23;20474;-65
2022/07/06 00:53:03;;;;;;;39.30;5.10;;;;;;;;;;6182246;23;20029;-65
2022/07/06 00:55:32;;;;;;;29.67;5.40;;;;;;;;;;6181457;23;20523;-65
2022/07/06 00:58:03;;;;;;;36.60;5.82;;;;;;;;;;6181777;23;20028;-63
2022/07/06 01:00:32;;;;;;;22.20;4.20;;;;;;;;;;6181641;23;20103;-65
2022/07/06 01:02:59;;;;;;;25.33;4.50;;;;;;;;;;6181986;23;20021;-65
2022/07/06 01:05:27;;;;;;;18.45;4.60;;;;;;;;;;6181209;23;20017;-65
2022/07/06 01:07:54;;;;;;;;;;;;;;;;;;6181789;23;20402;-58
2022/07/06 01:10:22;;;;;;;26.02;4.82;;;;;;;;;;6181094;23;20330;-58
2022/07/06 01:12:49;;;;;;;34.55;4.60;;;;;;;;;;6181327;23;20052;-58
2022/07/06 01:15:18;;;;;;;36.10;5.00;;;;;;;;;;6182028;23;20075;-58
2022/07/06 01:17:45;;;;;;;30.80;4.68;;;;;;;;;;6181484;23;20025;-58
2022/07/06 01:20:20;;;;;;;26.17;4.63;;;;;;;;;;6181743;23;20017;-59
2022/07/06 01:22:48;;;;;;;25.20;4.47;;;;;;;;;;6181807;23;20044;-47
2022/07/06 01:25:16;;;;;;;22.67;4.38;;;;;;;;;;6182187;23;20025;-58
2022/07/06 01:27:43;;;;;;;20.48;4.22;;;;;;;;;;6181038;23;20459;-70
2022/07/06 01:30:10;;;;;;;;;;;;;;;;;;6182011;23;20029;-69
2022/07/06 01:32:38;;;;;;;16.50;4.25;;;;;;;;;;6181692;23;19924;-70
2022/07/06 01:35:06;;;;;;;26.92;4.40;;;;;;;;;;6181425;23;20399;-70
2022/07/06 01:37:33;;;;;;;19.05;4.22;;;;;;;;;;6180817;23;20410;-70
2022/07/06 01:40:01;;;;;;;24.48;4.22;;;;;;;;;;6181674;23;20045;-70
2022/07/06 01:42:28;;;;;;;25.17;4.13;;;;;;;;;;6181549;23;20021;-50
2022/07/06 01:44:56;;;;;;;19.60;4.32;;;;;;;;;;6181642;23;20025;-57
2022/07/06 01:47:24;;;;;;;21.88;4.07;;;;;;;;;;6180723;23;20024;-60
2022/07/06 01:49:52;;;;;;;19.92;4.38;;;;;;;;;;6181569;23;20394;-59
2022/07/06 01:52:19;;;;;;;20.60;4.88;;;;;;;;;;6180287;23;20048;-59
2022/07/06 01:54:46;;;;;;;18.73;3.63;;;;;;;;;;6181509;23;20025;-59
2022/07/06 01:57:13;;;;;;;20.90;3.95;;;;;;;;;;6180856;23;20052;-60
2022/07/06 01:59:41;;;;;;;18.58;3.58;;;;;;;;;;6181035;23;20083;-60
2022/07/06 02:02:08;;;;;;;14.88;3.58;;;;;;;;;;6180364;23;20025;-48
2022/07/06 02:04:36;;;;;;;21.63;4.13;;;;;;;;;;6181777;23;20025;-66
2022/07/06 02:07:03;;;;;;;21.23;3.97;;;;;;;;;;6181012;23;20021;-67
2022/07/06 02:09:30;;;;;;;20.60;3.90;;;;;;;;;;6181477;23;20028;-67
2022/07/06 02:11:57;;;;;;;15.55;3.88;;;;;;;;;;6180781;23;20021;-67
2022/07/06 02:14:25;;;;;;;16.98;3.70;;;;;;;;;;6181074;23;20033;-66
2022/07/06 02:16:52;;;;;;;26.17;3.65;;;;;;;;;;6181264;23;20028;-67
2022/07/06 02:19:19;;;;;;;21.67;3.75;;;;;;;;;;6181440;23;20027;-66
2022/07/06 02:21:47;;;;;;;22.33;4.40;;;;;;;;;;6180544;23;20025;-59
2022/07/06 02:24:14;;;;;;;13.93;3.90;;;;;;;;;;6181297;23;20021;-47
2022/07/06 02:26:41;;;;;;;16.77;3.67;;;;;;;;;;6180726;23;20021;-48
2022/07/06 02:29:08;;;;;;;20.83;3.80;;;;;;;;;;6181438;23;20418;-45
2022/07/06 02:31:36;;;;;;;20.90;3.92;;;;;;;;;;6180204;23;20100;-46
2022/07/06 02:34:03;;;;;;;24.45;4.00;;;;;;;;;;6154554;23;20036;-50
2022/07/06 02:36:31;;;;;;;25.38;4.18;;;;;;;;;;6179306;23;20075;-53
2022/07/06 02:38:58;;;;;;;16.90;3.42;;;;;;;;;;6181366;23;20024;-59
2022/07/06 02:41:25;;;;;;;19.20;4.35;;;;;;;;;;6180509;23;20036;-59
2022/07/06 02:43:53;;;;;;;17.48;3.85;;;;;;;;;;6180982;23;20402;-57
2022/07/06 02:46:20;;;;;;;20.27;3.88;;;;;;;;;;6180213;23;20064;-57
2022/07/06 02:48:47;;;;;;;13.05;3.10;;;;;;;;;;6181009;23;20025;-59
2022/07/06 02:51:14;;;;;;;18.48;3.65;;;;;;;;;;6180424;23;20025;-58
2022/07/06 02:53:42;;;;;;;23.58;3.83;;;;;;;;;;6181184;23;20025;-58
2022/07/06 02:56:09;;;;;;;11.60;3.30;;;;;;;;;;6180178;23;20474;-58
2022/07/06 02:58:37;;;;;;;14.02;3.83;;;;;;;;;;6180284;23;20032;-59
2022/07/06 03:01:04;;;;;;;16.42;3.90;;;;;;;;;;6180573;23;20029;-49
2022/07/06 03:03:31;;;;;;;17.20;3.80;;;;;;;;;;6180747;23;20071;-50
2022/07/06 03:05:59;;;;;;;;;;;;;;;;;;6181455;23;20090;-52
2022/07/06 03:08:26;;;;;;;16.15;3.00;;;;;;;;;;6180517;23;19916;-53
2022/07/06 03:10:53;;;;;;;25.35;3.50;;;;;;;;;;6180524;23;20028;-52
2022/07/06 03:13:21;;;;;;;14.52;3.30;;;;;;;;;;6180279;23;20083;-53
2022/07/06 03:15:48;;;;;;;13.60;2.72;;;;;;;;;;6180621;23;20423;-51
2022/07/06 03:18:15;;;;;;;14.77;3.58;;;;;;;;;;6180483;23;20058;-58
2022/07/06 03:20:43;;;;;;;;;;;;;;;;;;6181224;23;20017;-58
2022/07/06 03:23:10;;;;;;;14.52;2.50;;;;;;;;;;6180015;23;19920;-58
2022/07/06 03:25:37;;;;;;;12.30;2.85;;;;;;;;;;6181315;23;20052;-57
2022/07/06 03:28:04;;;;;;;13.57;2.75;;;;;;;;;;6179973;23;20021;-57
2022/07/06 03:30:32;;;;;;;11.90;2.38;;;;;;;;;;6179985;23;20029;-58
2022/07/06 03:32:59;;;;;;;11.45;2.42;;;;;;;;;;6180392;23;20020;-57
2022/07/06 03:35:26;;;;;;;8.90;2.00;;;;;;;;;;6180837;23;20021;-58
2022/07/06 03:37:53;;;;;;;10.90;2.40;;;;;;;;;;6180577;23;20025;-51
2022/07/06 03:40:20;;;;;;;13.52;2.35;;;;;;;;;;6180476;23;20327;-66
2022/07/06 03:42:48;;;;;;;8.88;2.05;;;;;;;;;;6179917;23;20032;-66
2022/07/06 03:45:15;;;;;;;12.75;2.13;;;;;;;;;;6180470;23;20059;-66
2022/07/06 03:47:42;;;;;;;10.55;2.00;;;;;;;;;;6180300;23;20029;-66
2022/07/06 03:50:10;;;;;;;9.45;2.30;;;;;;;;;;6180407;23;20060;-66
2022/07/06 03:52:40;;;;;;;7.55;1.90;;;;;;;;;;6179847;23;20021;-67
2022/07/06 03:55:09;;;;;;;9.57;2.35;;;;;;;;;;6180609;23;20493;-50
2022/07/06 03:57:36;;;;;;;9.43;1.90;;;;;;;;;;6180701;23;20096;-58
2022/07/06 04:00:04;;;;;;;12.70;1.85;;;;;;;;;;6180477;23;20024;-66
2022/07/06 04:02:31;;;;;;;11.85;1.40;;;;;;;;;;6179757;23;20059;-67
2022/07/06 04:04:59;;;;;;;3.67;1.02;;;;;;;;;;6180378;23;20044;-67
2022/07/06 04:07:26;;;;;;;4.65;1.40;;;;;;;;;;6179935;23;20079;-66
2022/07/06 04:09:54;;;;;;;4.05;1.20;;;;;;;;;;6180267;23;20025;-66
2022/07/06 04:12:21;;;;;;;4.93;1.98;;;;;;;;;;6179510;23;20021;-66
2022/07/06 04:14:48;;;;;;;5.05;1.52;;;;;;;;;;6180392;23;20502;-60
2022/07/06 04:20:02;;;;;;;6.65;1.75;;;;;;;;;;6180489;23;20080;-59
2022/07/06 04:22:29;;;;;;;3.92;1.40;;;;;;;;;;6180041;23;20036;-57
2022/07/06 04:24:56;;;;;;;3.83;1.05;;;;;;;;;;6180421;23;20470;-58
2022/07/06 04:27:23;;;;;;;4.55;1.30;;;;;;;;;;6179515;23;20478;-59
2022/07/06 04:29:51;;;;;;;4.00;1.13;;;;;;;;;;6180657;23;20021;-58
2022/07/06 04:32:18;;;;;;;2.70;0.90;;;;;;;;;;6179291;23;20021;-58
2022/07/06 04:34:51;;;;;;;4.43;1.05;;;;;;;;;;6180900;23;20040;-59
2022/07/06 04:37:18;;;;;;;6.60;1.15;;;;;;;;;;6180045;23;20025;-51
2022/07/06 04:39:46;;;;;;;2.08;0.90;;;;;;;;;;6180835;23;20080;-49
2022/07/06 04:42:13;;;;;;;3.95;1.00;;;;;;;;;;6179117;23;20025;-53
2022/07/06 04:44:43;;;;;;;5.85;0.85;;;;;;;;;;6181477;23;20021;-50
2022/07/06 04:47:10;;;;;;;1.67;0.60;;;;;;;;;;6155728;23;20017;-52
2022/07/06 04:49:42;;;;;;;3.10;1.05;;;;;;;;;;6182723;23;20021;-52
2022/07/06 04:52:10;;;;;;;3.70;0.63;;;;;;;;;;6180853;23;20386;-67
2022/07/06 04:54:42;;;;;;;0.95;0.40;;;;;;;;;;6181852;23;20025;-67
2022/07/06 04:57:09;;;;;;;4.45;0.93;;;;;;;;;;6181626;23;20084;-58
2022/07/06 04:59:39;;;;;;;2.00;0.90;;;;;;;;;;6182229;23;20031;-58
2022/07/06 05:02:06;;;;;;;1.90;0.40;;;;;;;;;;6180622;23;20052;-58
2022/07/06 05:04:33;;;;;;;2.00;0.30;;;;;;;;;;6182334;23;20035;-58
2022/07/06 05:07:01;;;;;;;0.98;0.55;;;;;;;;;;6181347;23;20021;-58
2022/07/06 05:09:28;;;;;;;4.45;0.70;;;;;;;;;;6182232;23;20471;-58
2022/07/06 05:11:55;;;;;;;4.88;0.77;;;;;;;;;;6181337;23;20021;-58
2022/07/06 05:14:23;;;;;;;0.65;0.40;;;;;;;;;;6181396;23;20051;-66
2022/07/06 05:16:50;;;;;;;1.25;0.28;;;;;;;;;;6181360;23;20478;-58
2022/07/06 05:19:17;;;;;;;2.30;0.60;;;;;;;;;;6182026;23;20071;-58
2022/07/06 05:21:45;;;;;;;3.05;0.40;;;;;;;;;;6181082;23;20021;-57
2022/07/06 05:24:12;;;;;;;1.95;0.40;;;;;;;;;;6181929;23;20017;-58
2022/07/06 05:26:39;;;;;;;2.00;0.30;;;;;;;;;;6181603;23;20029;-58
2022/07/06 05:29:07;;;;;;;1.83;0.28;;;;;;;;;;6181630;23;20049;-58
2022/07/06 05:31:35;;;;;;;1.92;0.40;;;;;;;;;;6181723;23;20028;-65
2022/07/06 05:34:08;;;;;;;0.90;0.28;;;;;;;;;;6181734;23;20462;-58
2022/07/06 05:36:40;;;;;;;1.77;0.60;;;;;;;;;;6180506;23;20087;-56
2022/07/06 05:39:10;;;;;;;1.92;0.40;;;;;;;;;;6156284;23;20048;-58
2022/07/06 05:41:37;;;;;;;0.75;0.20;;;;;;;;;;6181684;23;20033;-58
2022/07/06 05:44:07;;;;;;;0.93;0.40;;;;;;;;;;6181777;23;20021;-58
2022/07/06 05:46:35;;;;;;;0.38;0.28;;;;;;;;;;6181444;23;20036;-57
2022/07/06 05:51:49;;;;;;;0.70;0.30;;;;;;;;;;6180499;23;20031;-50
2022/07/06 05:54:16;;;;;;;4.20;0.47;;;;;;;;;;6181230;23;20528;-57
2022/07/06 05:56:43;;;;;;;0.20;0.20;;;;;;;;;;6180910;23;20486;-57
2022/07/06 05:59:11;;;;;;;0.70;0.40;;;;;;;;;;6181445;23;20083;-58
2022/07/06 06:01:38;;;;;;;0.30;0.20;;;;;;;;;;6181524;23;20029;-57
2022/07/06 06:04:05;;;;;;;1.20;0.60;;;;;;;;;;6180812;23;20024;-58
2022/07/06 06:06:33;;;;;;;0.60;0.30;;;;;;;;;;6181184;23;20025;-58
2022/07/06 06:09:00;;;;;;;4.07;0.60;;;;;;;;;;6181544;23;20079;-59
2022/07/06 06:11:27;;;;;;;0.43;0.35;;;;;;;;;;6180142;23;20328;-57
2022/07/06 06:13:54;;;;;;;0.68;0.30;;;;;;;;;;6180672;23;20514;-52
2022/07/06 06:16:21;;;;;;;1.83;0.77;;;;;;;;;;6180801;23;20354;-51
2022/07/06 06:18:49;;;;;;;1.65;0.10;;;;;;;;;;6154869;23;20403;-53
2022/07/06 06:21:16;;;;;;;;;;;;;;;;;;6181422;23;20535;-50
2022/07/06 06:23:44;;;;;;;2.53;0.40;;;;;;;;;;6180371;23;20238;-48
2022/07/06 06:26:11;;;;;;;2.53;0.63;;;;;;;;;;6180786;23;20021;-49
2022/07/06 06:28:38;;;;;;;;;;;;;;;;;;6181156;23;20052;-51
2022/07/06 06:31:06;;;;;;;1.13;0.38;;;;;;;;;;6180594;23;20334;-58
2022/07/06 06:33:33;;;;;;;;;;;;;;;;;;6181103;23;20467;-57
2022/07/06 06:36:00;;;;;;;1.27;0.30;;;;;;;;;;6181520;23;19930;-57
2022/07/06 06:38:29;;;;;;;3.15;0.50;;;;;;;;;;6180901;23;20024;-58
2022/07/06 06:40:57;;;;;;;4.47;0.80;;;;;;;;;;6181008;23;20021;-57
2022/07/06 06:43:25;;;;;;;0.52;0.10;;;;;;;;;;6180120;23;20029;-58
2022/07/06 06:45:52;;;;;;;;;;;;;;;;;;6181918;23;20025;-58
2022/07/06 06:48:19;;;;;;;0.70;0.28;;;;;;;;;;6180554;23;19931;-58
2022/07/06 06:50:46;;;;;;;0.43;0.43;;;;;;;;;;6180954;23;20056;-58
2022/07/06 06:53:14;;;;;;;1.25;0.57;;;;;;;;;;6180292;23;20052;-58
2022/07/06 06:55:41;;;;;;;0.13;0.13;;;;;;;;;;6180857;23;20740;-58
2022/07/06 06:58:08;;;;;;;2.78;0.25;;;;;;;;;;6180384;23;20021;-58
2022/07/06 07:00:39;;;;;;;2.80;0.30;;;;;;;;;;6181398;23;20075;-58
2022/07/06 07:03:10;;;;;;;0.52;0.10;;;;;;;;;;6179775;23;20025;-58
2022/07/06 07:05:38;;;;;;;1.73;0.20;;;;;;;;;;6154565;23;20544;-58
2022/07/06 07:08:06;;;;;;;0.10;0.10;;;;;;;;;;6179865;23;20363;-59
2022/07/06 07:10:33;;;;;;;0.93;0.30;;;;;;;;;;6180389;23;20458;-66
2022/07/06 07:13:01;;;;;;;2.85;0.32;;;;;;;;;;6179444;23;20426;-65
2022/07/06 07:15:28;;;;;;;0.20;0.20;;;;;;;;;;6181489;23;20648;-66
2022/07/06 07:17:55;;;;;;;0.85;0.20;;;;;;;;;;6180772;23;20075;-65
2022/07/06 07:20:23;;;;;;;;;;;;;;;;;;6181293;23;20025;-65
2022/07/06 07:22:50;;;;;;;2.13;0.20;;;;;;;;;;6179621;23;19942;-65
2022/07/06 07:25:17;;;;;;;0.43;0.22;;;;;;;;;;6180823;23;20075;-58
2022/07/06 07:27:45;;;;;;;;;;;;;;;;;;6181454;23;20056;-58
2022/07/06 07:30:12;;;;;;;0.52;0.30;;;;;;;;;;6180622;23;19920;-50
2022/07/06 07:32:42;;;;;;;1.08;0.28;;;;;;;;;;6180742;23;20024;-52
2022/07/06 07:35:10;;;;;;;1.52;0.30;;;;;;;;;;6180519;23;20046;-54
2022/07/06 07:37:37;;;;;;;0.68;0.25;;;;;;;;;;6180152;23;20029;-51
2022/07/06 07:40:05;;;;;;;2.28;0.30;;;;;;;;;;6180651;23;20049;-53
2022/07/06 07:42:33;;;;;;;0.80;0.30;;;;;;;;;;6180208;23;20471;-53
2022/07/06 07:45:00;;;;;;;1.42;0.38;;;;;;;;;;6180354;23;20100;-58
2022/07/06 07:47:27;;;;;;;0.43;0.30;;;;;;;;;;6179966;23;20025;-58
2022/07/06 07:49:54;;;;;;;;;;;;;;;;;;6181397;23;20025;-59
2022/07/06 07:52:22;;;;;;;0.82;0.30;;;;;;;;;;6180026;23;19916;-58
2022/07/06 07:54:49;;;;;;;0.80;0.35;;;;;;;;;;6180065;23;20537;-58
2022/07/06 07:57:37;;;;;;;0.65;0.30;;;;;;;;;;6179567;23;20343;-58
2022/07/06 08:00:05;;;;;;;0.47;0.20;;;;;;;;;;6180644;23;20049;-59
2022/07/06 08:02:32;;;;;;;2.67;0.43;;;;;;;;;;6180131;23;20024;-49
2022/07/06 08:04:59;;;;;;;0.40;0.20;;;;;;;;;;6180265;23;20021;-51
2022/07/06 08:07:27;;;;;;;1.25;0.35;;;;;;;;;;6180220;23;20072;-58
2022/07/06 08:09:54;;;;;;;0.65;0.25;;;;;;;;;;6180747;23;20057;-58
2022/07/06 08:12:21;;;;;;;0.63;0.30;;;;;;;;;;6180145;23;20025;-58
2022/07/06 08:14:48;;;;;;;3.40;0.30;;;;;;;;;;6180004;23;20032;-58
2022/07/06 08:17:16;;;;;;;;;;;;;;;;;;6180231;23;20075;-58
2022/07/06 08:19:43;;;;;;;1.58;0.47;;;;;;;;;;6182386;23;19916;-58
2022/07/06 08:22:10;;;;;;;1.15;0.30;;;;;;;;;;6182237;23;20025;-58
2022/07/06 08:24:37;;;;;;;;;;;;;;;;;;6182997;23;20362;-65
2022/07/06 08:27:06;;;;;;;;;;;;;;;;;;6182482;23;19923;-57
2022/07/06 08:29:37;;;;;;;1.88;0.40;;;;;;;;;;6182584;23;19916;-58
2022/07/06 08:32:06;;;;;;;2.10;0.55;;;;;;;;;;6179063;23;20379;-58
2022/07/06 08:34:46;;;;;;;2.35;0.40;;;;;;;;;;6181737;23;20466;-58
2022/07/06 08:37:14;;;;;;;3.65;0.60;;;;;;;;;;6181659;23;20021;-58
2022/07/06 08:39:41;;;;;;;;;;;;;;;;;;6182996;23;20033;-58
2022/07/06 08:42:10;;;;;;;1.33;0.38;;;;;;;;;;6181318;23;19943;-66
2022/07/06 08:44:37;;;;;;;0.60;0.40;;;;;;;;;;6181982;23;20025;-66
2022/07/06 08:47:08;;;;;;;2.90;0.43;;;;;;;;;;6182161;23;20025;-65
2022/07/06 08:49:36;;;;;;;1.08;0.40;;;;;;;;;;6182328;23;20025;-66
2022/07/06 08:52:04;;;;;;;1.23;0.40;;;;;;;;;;6181650;23;20025;-66
2022/07/06 08:54:32;;;;;;;7.72;0.30;;;;;;;;;;6181839;23;20033;-66
2022/07/06 08:57:00;;;;;;;1.42;0.40;;;;;;;;;;6182172;23;20025;-66
2022/07/06 08:59:27;;;;;;;2.53;0.40;;;;;;;;;;6181606;23;20052;-64
2022/07/06 09:01:55;;;;;;;1.08;0.25;;;;;;;;;;6181774;23;20029;-51
2022/07/06 09:04:22;;;;;;;;;;;;;;;;;;6182378;23;20017;-59
2022/07/06 09:06:50;;;;;;;1.65;0.47;;;;;;;;;;6181786;23;20351;-59
2022/07/06 09:09:21;;;;;;;2.25;0.47;;;;;;;;;;6181100;23;20021;-59
2022/07/06 09:11:49;;;;;;;2.95;0.55;;;;;;;;;;6182054;23;20052;-59
2022/07/06 09:14:18;;;;;;;2.85;0.60;;;;;;;;;;6181198;23;20025;-59
2022/07/06 09:16:47;;;;;;;0.98;0.43;;;;;;;;;;6182168;23;20025;-59
2022/07/06 09:19:16;;;;;;;2.20;0.50;;;;;;;;;;6180827;23;20505;-52
2022/07/06 09:21:44;;;;;;;2.72;0.40;;;;;;;;;;6181912;23;20632;-65
2022/07/06 09:24:12;;;;;;;0.95;0.43;;;;;;;;;;6181484;23;20017;-65
2022/07/06 09:26:40;;;;;;;1.63;0.30;;;;;;;;;;6181883;23;20029;-65
2022/07/06 09:29:09;;;;;;;2.28;0.50;;;;;;;;;;6180681;23;20396;-65
2022/07/06 09:31:36;;;;;;;1.25;0.60;;;;;;;;;;6181835;23;20493;-65
2022/07/06 09:34:05;;;;;;;3.45;0.63;;;;;;;;;;6181081;23;20018;-65
2022/07/06 09:36:42;;;;;;;4.90;0.80;;;;;;;;;;6182030;23;20137;-65
2022/07/06 09:39:18;;;;;;;0.63;0.20;;;;;;;;;;6181242;23;20025;-59
2022/07/06 09:41:52;;;;;;;2.25;0.30;;;;;;;;;;6181444;23;20021;-58
2022/07/06 09:44:26;;;;;;;0.93;0.30;;;;;;;;;;6181229;23;20340;-58
2022/07/06 09:46:55;;;;;;;4.03;0.55;;;;;;;;;;6155504;23;20099;-58
2022/07/06 09:49:23;;;;;;;3.10;0.50;;;;;;;;;;6180681;23;20029;-58
2022/07/06 09:51:52;;;;;;;2.15;0.60;;;;;;;;;;6181862;23;20087;-58
2022/07/06 09:54:19;;;;;;;2.95;0.45;;;;;;;;;;6180966;23;20052;-59
2022/07/06 09:56:50;;;;;;;1.63;0.35;;;;;;;;;;6181780;23;20083;-65
2022/07/06 09:59:21;;;;;;;2.67;0.43;;;;;;;;;;6181407;23;20021;-65
2022/07/06 10:01:51;;;;;;;1.50;0.40;;;;;;;;;;6181476;23;20537;-59
2022/07/06 10:04:20;;;;;;;2.53;0.43;;;;;;;;;;6181144;23;20056;-59
2022/07/06 10:06:48;;;;;;;0.65;0.30;;;;;;;;;;6181439;23;20371;-59
2022/07/06 10:09:16;;;;;;;2.88;0.40;;;;;;;;;;6180502;23;20529;-59
2022/07/06 10:11:45;;;;;;;1.85;0.40;;;;;;;;;;6181652;23;20076;-59
2022/07/06 10:14:13;;;;;;;2.80;0.60;;;;;;;;;;6180082;23;20052;-59
2022/07/06 10:16:41;;;;;;;2.60;0.60;;;;;;;;;;6181413;23;20031;-66
2022/07/06 10:19:09;;;;;;;1.08;0.38;;;;;;;;;;6180909;23;20020;-60
2022/07/06 10:21:37;;;;;;;1.48;0.60;;;;;;;;;;6181678;23;20080;-59
2022/07/06 10:24:05;;;;;;;2.20;0.50;;;;;;;;;;6180606;23;20029;-60
2022/07/06 10:26:34;;;;;;;3.60;0.52;;;;;;;;;;6181497;23;20128;-60
2022/07/06 10:29:02;;;;;;;3.55;0.52;;;;;;;;;;6181027;23;20075;-60
2022/07/06 10:31:30;;;;;;;1.15;0.52;;;;;;;;;;6181521;23;20029;-59
2022/07/06 10:33:59;;;;;;;1.17;0.52;;;;;;;;;;6180678;23;20021;-59
2022/07/06 10:36:27;;;;;;;2.78;0.60;;;;;;;;;;6181121;23;20024;-65
2022/07/06 10:38:55;;;;;;;0.77;0.43;;;;;;;;;;6181167;23;20025;-53
2022/07/06 10:41:32;;;;;;;1.17;0.63;;;;;;;;;;6180639;23;20029;-50
2022/07/06 10:44:15;;;;;;;1.20;0.50;;;;;;;;;;6154767;23;20018;-54
2022/07/06 10:46:49;;;;;;;3.03;0.50;;;;;;;;;;6181452;23;20084;-52
2022/07/06 10:49:17;;;;;;;3.72;0.77;;;;;;;;;;6180563;23;20024;-53
2022/07/06 10:52:05;;;;;;;2.40;0.60;;;;;;;;;;6180527;23;20100;-52
2022/07/06 10:54:40;;;;;;;3.75;0.70;;;;;;;;;;6180224;23;20029;-60
2022/07/06 10:57:10;;;;;;;1.30;0.52;;;;;;;;;;6181301;23;20029;-65
2022/07/06 10:59:37;;;;;;;8.90;1.00;;;;;;;;;;6180120;23;20474;-52
2022/07/06 11:02:18;;;;;;;1.80;0.50;;;;;;;;;;6180548;23;20402;-49
2022/07/06 11:04:46;;;;;;;6.35;0.82;;;;;;;;;;6180263;23;20028;-50
2022/07/06 11:07:15;;;;;;;2.13;0.70;;;;;;;;;;6180482;23;20048;-50
2022/07/06 11:09:54;;;;;;;2.50;0.80;;;;;;;;;;6180782;23;20025;-51
2022/07/06 11:12:21;;;;;;;5.05;1.13;;;;;;;;;;6180891;23;20087;-49
2022/07/06 11:14:48;;;;;;;;;;;;;;;;;;6180721;23;20029;-61
2022/07/06 11:17:16;;;;;;;5.13;1.23;;;;;;;;;;6180551;23;19970;-65
2022/07/06 11:20:09;;;;;;;1.55;0.50;;;;;;;;;;6180563;23;20017;-65
2022/07/06 11:22:38;;;;;;;6.28;0.80;;;;;;;;;;6174755;23;20021;-65
2022/07/06 11:25:06;;;;;;;2.30;0.70;;;;;;;;;;6179628;23;20524;-65
2022/07/06 11:27:34;;;;;;;2.38;0.98;;;;;;;;;;6180272;23;20032;-65
2022/07/06 11:30:02;;;;;;;2.45;0.77;;;;;;;;;;6180327;23;20025;-65
2022/07/06 11:32:31;;;;;;;2.85;0.60;;;;;;;;;;6180666;23;20028;-52
2022/07/06 11:34:58;;;;;;;2.55;0.80;;;;;;;;;;6179965;23;20021;-53
2022/07/06 11:37:25;;;;;;;2.22;0.93;;;;;;;;;;6180623;23;20088;-66
2022/07/06 11:39:53;;;;;;;3.15;0.70;;;;;;;;;;6180679;23;20470;-66
2022/07/06 11:42:20;;;;;;;1.33;0.55;;;;;;;;;;6180355;23;20529;-64
2022/07/06 11:44:49;;;;;;;3.47;1.08;;;;;;;;;;6179848;23;20087;-66
2022/07/06 11:47:18;;;;;;;2.83;1.38;;;;;;;;;;6180510;23;20549;-66
2022/07/06 11:49:52;;;;;;;1.85;0.70;;;;;;;;;;6180082;23;20021;-66
2022/07/06 11:52:20;;;;;;;1.77;0.60;;;;;;;;;;6180671;23;20073;-65
2022/07/06 11:54:47;;;;;;;2.17;0.82;;;;;;;;;;6182525;23;20021;-60
2022/07/06 11:57:14;;;;;;;1.67;0.52;;;;;;;;;;6182244;23;20063;-59
2022/07/06 11:59:42;;;;;;;;;;;;;;;;;;6182834;23;20028;-59
2022/07/06 12:02:14;;;;;;;3.97;0.82;;;;;;;;;;6182218;23;19916;-60
2022/07/06 12:04:45;;;;;;;4.05;0.88;;;;;;;;;;6182343;23;20095;-60
2022/07/06 12:07:14;;;;;;;4.68;0.98;;;;;;;;;;6181992;23;20343;-60
2022/07/06 12:09:42;;;;;;;2.20;0.88;;;;;;;;;;6182498;23;20025;-59
2022/07/06 12:12:10;;;;;;;4.65;0.77;;;;;;;;;;6182070;23;20068;-59
2022/07/06 12:14:38;;;;;;;4.53;0.75;;;;;;;;;;6181855;23;20029;-66
2022/07/06 12:17:07;;;;;;;2.95;0.90;;;;;;;;;;6156162;23;20025;-65
2022/07/06 12:19:35;;;;;;;5.78;0.70;;;;;;;;;;6182119;23;20021;-66
2022/07/06 12:22:03;;;;;;;4.05;1.00;;;;;;;;;;6182568;23;20025;-65
2022/07/06 12:24:32;;;;;;;5.70;1.00;;;;;;;;;;6181888;23;20025;-65
2022/07/06 12:27:10;;;;;;;3.33;0.60;;;;;;;;;;6182540;23;20025;-65
2022/07/06 12:29:37;;;;;;;5.75;1.08;;;;;;;;;;6182254;23;20025;-60
2022/07/06 12:32:05;;;;;;;3.45;1.10;;;;;;;;;;6181461;23;20025;-59
2022/07/06 12:34:35;;;;;;;5.32;0.80;;;;;;;;;;6181495;23;20096;-60
2022/07/06 12:37:10;;;;;;;2.75;0.93;;;;;;;;;;6182177;23;20422;-60
2022/07/06 12:39:45;;;;;;;4.65;0.93;;;;;;;;;;6182004;23;20028;-60
2022/07/06 12:42:16;;;;;;;5.88;0.90;;;;;;;;;;6182060;23;20025;-60
2022/07/06 12:44:50;;;;;;;3.22;1.10;;;;;;;;;;6181802;23;20043;-60
2022/07/06 12:47:23;;;;;;;1.75;0.88;;;;;;;;;;6181804;23;20029;-61
2022/07/06 12:50:07;;;;;;;2.10;0.75;;;;;;;;;;6181996;23;20017;-60
2022/07/06 12:52:36;;;;;;;2.38;0.60;;;;;;;;;;6182604;23;20080;-65
2022/07/06 12:55:04;;;;;;;3.28;0.63;;;;;;;;;;6182124;23;20103;-65
2022/07/06 12:57:45;;;;;;;7.75;1.30;;;;;;;;;;6182124;23;20128;-65
2022/07/06 13:00:12;;;;;;;2.30;0.70;;;;;;;;;;6181604;23;20024;-65
2022/07/06 13:02:41;;;;;;;4.72;0.98;;;;;;;;;;6181874;23;20044;-65
2022/07/06 13:05:28;;;;;;;5.30;0.70;;;;;;;;;;6180923;23;20470;-65
2022/07/06 13:07:57;;;;;;;2.30;0.77;;;;;;;;;;6181908;23;20025;-60
2022/07/06 13:10:24;;;;;;;5.15;0.70;;;;;;;;;;6181702;23;20053;-65
2022/07/06 13:12:52;;;;;;;3.33;0.52;;;;;;;;;;6181303;23;20025;-60
2022/07/06 13:15:20;;;;;;;1.88;0.65;;;;;;;;;;6181296;23;20486;-60
2022/07/06 13:17:48;;;;;;;3.70;0.80;;;;;;;;;;6181506;23;20076;-60
2022/07/06 13:20:17;;;;;;;4.60;0.70;;;;;;;;;;6181487;23;20406;-59
2022/07/06 13:22:44;;;;;;;1.52;0.60;;;;;;;;;;6181973;23;20524;-60
2022/07/06 13:25:12;;;;;;;2.15;0.55;;;;;;;;;;6181419;23;20017;-59
2022/07/06 13:27:40;;;;;;;4.38;0.73;;;;;;;;;;6182148;23;20336;-59
2022/07/06 13:30:08;;;;;;;1.52;0.50;;;;;;;;;;6181609;23;20032;-52
2022/07/06 13:32:36;;;;;;;1.88;0.95;;;;;;;;;;6181896;23;20025;-53
2022/07/06 13:35:03;;;;;;;;;;;;;;;;;;6181817;23;20180;-53
2022/07/06 13:37:30;;;;;;;2.55;1.00;;;;;;;;;;6182114;23;19975;-54
2022/07/06 13:39:57;;;;;;;3.28;0.40;;;;;;;;;;6181578;23;20025;-53
2022/07/06 13:42:25;;;;;;;1.65;0.52;;;;;;;;;;6181736;23;20025;-54
2022/07/06 13:44:52;;;;;;;;;;;;;;;;;;6181770;23;20032;-53
2022/07/06 13:47:19;;;;;;;3.65;0.55;;;;;;;;;;6181382;23;19971;-60
2022/07/06 13:49:47;;;;;;;2.38;0.90;;;;;;;;;;6180834;23;20354;-64
2022/07/06 13:52:15;;;;;;;3.88;0.90;;;;;;;;;;6181685;23;20021;-64
2022/07/06 13:54:42;;;;;;;3.40;0.82;;;;;;;;;;6180884;23;20020;-64
2022/07/06 13:57:09;;;;;;;;;;;;;;;;;;6181893;23;20461;-64
2022/07/06 13:59:37;;;;;;;5.78;1.63;;;;;;;;;;6180709;23;20393;-65
2022/07/06 14:02:05;;;;;;;2.28;0.82;;;;;;;;;;6181369;23;20407;-67
2022/07/06 14:04:33;;;;;;;5.32;1.00;;;;;;;;;;6180966;23;20033;-59
2022/07/06 14:07:00;;;;;;;4.93;0.90;;;;;;;;;;6181522;23;20020;-59
2022/07/06 14:09:28;;;;;;;;;;;;;;;;;;6181311;23;20021;-60
2022/07/06 14:11:55;;;;;;;5.03;1.13;;;;;;;;;;6181430;23;20337;-60
2022/07/06 14:14:22;;;;;;;;;;;;;;;;;;6180720;23;20025;-60
2022/07/06 14:16:50;;;;;;;8.63;1.48;;;;;;;;;;6181529;23;19970;-60
2022/07/06 14:19:20;;;;;;;7.63;1.73;;;;;;;;;;6180772;23;20021;-60
2022/07/06 14:21:48;;;;;;;7.30;1.77;;;;;;;;;;6181581;23;20029;-60
2022/07/06 14:24:16;;;;;;;7.15;1.30;;;;;;;;;;6180755;23;20021;-59
2022/07/06 14:26:43;;;;;;;6.82;1.33;;;;;;;;;;6181585;23;20017;-49
2022/07/06 14:29:10;;;;;;;;;;;;;;;;;;6181024;23;20048;-59
2022/07/06 14:31:38;;;;;;;6.35;1.77;;;;;;;;;;6181134;23;19916;-59
2022/07/06 14:34:05;;;;;;;3.70;1.63;;;;;;;;;;6180729;23;20477;-59
2022/07/06 14:36:34;;;;;;;9.35;1.83;;;;;;;;;;6181246;23;20021;-59
2022/07/06 14:39:01;;;;;;;10.80;1.55;;;;;;;;;;6181067;23;20029;-59
2022/07/06 14:41:28;;;;;;;6.80;1.48;;;;;;;;;;6181140;23;20021;-59
2022/07/06 14:43:55;;;;;;;;;;;;;;;;;;6180990;23;20052;-54
2022/07/06 14:46:23;;;;;;;11.52;2.10;;;;;;;;;;6180696;23;20326;-59
2022/07/06 14:48:50;;;;;;;10.40;2.05;;;;;;;;;;6180383;23;20028;-60
2022/07/06 14:51:17;;;;;;;;;;;;;;;;;;6181595;23;20018;-59
2022/07/06 14:53:45;;;;;;;15.13;2.00;;;;;;;;;;6180485;23;19939;-59
2022/07/06 14:56:12;;;;;;;6.65;1.48;;;;;;;;;;6180703;23;20589;-59
2022/07/06 14:58:39;;;;;;;9.80;1.60;;;;;;;;;;6180857;23;20087;-60
2022/07/06 15:01:19;;;;;;;8.68;1.65;;;;;;;;;;6180954;23;20096;-59